Haddam, Kansas
Current Conditions -  °F | °C
As of 9:55 AM on Sunday 21 Dec 2014 (Local Time) from KHJH Reporting Station
Haze Haze  
Wind Chill: 30°   Ceiling: 300
Heat Index: 38°   Visibility: 1.5mi
Dew Point: 36°   Wind: 12mph
Humidity: 95%   Direction: 200°SSW
Pressure: 29.86"   Gusts: NA
Location:  39.86°N, 97.3°W
Report Text: KHJH 211555Z AUTO 20010KT 1 1/2SM BR OVC003 03/02 A2986 RMK AO2 T00320024
Loading
Personal Weather Stations






























Interactive Weather Map New forecast layout! Learn more

10-Day Weather Forecast

Advertisements
Track Severe Weather on mobile